Oso, Washington
Current Conditions -  °F | °C
As of 5:55 AM on Wednesday 26 Nov 2014 (Local Time) from KAWO Reporting Station
Overcast Overcast  
Wind Chill: 55°   Ceiling: 1500
Heat Index: 55°   Visibility: 10mi
Dew Point: 52°   Wind: 10mph
Humidity: 88%   Direction: 150°SSE
Pressure: 30.1"   Gusts: NA
Location:  48.2067°N, 121.947°W
Report Text: KAWO 261355Z AUTO 15009KT 10SM OVC015 13/11 A3010 RMK AO1
Loading
Personal Weather Stations






























Interactive Weather Map New forecast layout! Learn more

10-Day Weather Forecast

Advertisements
Track Severe Weather on mobile